createdAt,value
2022-11-26T00:04:04.067Z,4.57
2022-11-26T00:06:42.334Z,5.25
2022-11-26T00:09:16.532Z,5.05
2022-11-26T00:11:47.814Z,4.95
2022-11-26T00:14:16.684Z,4.13
2022-11-26T00:16:44.426Z,3.85
2022-11-26T00:19:13.424Z,3.95
2022-11-26T00:21:42.290Z,4.80
2022-11-26T00:24:26.918Z,4.85
2022-11-26T00:26:55.932Z,5.07
2022-11-26T00:29:25.095Z,4.03
2022-11-26T00:31:51.921Z,5.40
2022-11-26T00:34:18.795Z,6.07
2022-11-26T00:36:45.737Z,6.03
2022-11-26T00:39:18.639Z,5.22
2022-11-26T00:41:49.753Z,4.70
2022-11-26T00:44:24.850Z,5.40
2022-11-26T00:46:54.055Z,5.03
2022-11-26T00:49:21.029Z,4.22
2022-11-26T00:51:48.176Z,5.28
2022-11-26T00:54:18.067Z,5.63
2022-11-26T00:56:48.218Z,5.10
2022-11-26T00:59:25.279Z,5.20
2022-11-26T01:01:54.196Z,5.40
2022-11-26T01:04:21.047Z,6.63
2022-11-26T01:06:47.986Z,6.10
2022-11-26T01:09:20.460Z,6.10
2022-11-26T01:11:54.007Z,5.70
2022-11-26T01:14:23.857Z,6.20
2022-11-26T01:16:55.707Z,5.55
2022-11-26T01:19:22.745Z,5.07
2022-11-26T01:21:56.587Z,4.82
2022-11-26T01:24:30.433Z,6.18
2022-11-26T01:26:59.252Z,4.88
2022-11-26T01:29:28.097Z,5.68
2022-11-26T01:31:57.001Z,5.18
2022-11-26T01:34:23.853Z,5.20
2022-11-26T01:36:52.758Z,4.68
2022-11-26T01:39:24.766Z,4.68
2022-11-26T01:44:32.709Z,3.60
2022-11-26T01:47:20.843Z,4.93
2022-11-26T01:50:25.268Z,4.35
2022-11-26T01:52:52.466Z,5.30
2022-11-26T01:55:19.563Z,4.05
2022-11-26T01:57:49.620Z,3.60
2022-11-26T02:00:17.016Z,4.80
2022-11-26T02:02:45.537Z,5.13
2022-11-26T02:05:23.933Z,5.13
2022-11-26T02:07:52.807Z,5.65
2022-11-26T02:10:19.858Z,5.00
2022-11-26T02:12:47.108Z,4.95
2022-11-26T02:15:18.421Z,5.20
2022-11-26T02:17:54.513Z,4.30
2022-11-26T02:20:54.037Z,4.47
2022-11-26T02:23:34.832Z,5.20
2022-11-26T02:26:32.251Z,4.15
2022-11-26T02:29:11.743Z,4.13
2022-11-26T02:32:05.613Z,4.30
2022-11-26T02:34:56.148Z,4.40
2022-11-26T02:37:33.836Z,5.28
2022-11-26T02:40:00.580Z,6.18
2022-11-26T02:42:33.808Z,5.40
2022-11-26T02:45:47.386Z,3.28
2022-11-26T02:48:20.143Z,4.68
2022-11-26T02:50:54.201Z,5.63
2022-11-26T02:53:23.762Z,4.32
2022-11-26T02:55:57.358Z,5.13
2022-11-26T02:58:24.152Z,5.50
2022-11-26T03:00:51.690Z,4.22
2022-11-26T03:03:26.749Z,5.43
2022-11-26T03:05:57.297Z,5.28
2022-11-26T03:08:25.920Z,5.07
2022-11-26T03:10:55.088Z,4.68
2022-11-26T03:13:24.504Z,5.80
2022-11-26T03:15:51.419Z,5.68
2022-11-26T03:18:18.478Z,5.38
2022-11-26T03:20:45.230Z,5.60
2022-11-26T03:23:11.934Z,5.93
2022-11-26T03:25:41.101Z,3.20
2022-11-26T03:28:10.338Z,5.78
2022-11-26T03:30:37.104Z,5.47
2022-11-26T03:33:03.865Z,5.72
2022-11-26T03:35:32.814Z,4.25
2022-11-26T03:37:59.568Z,4.35
2022-11-26T03:40:26.370Z,4.38
2022-11-26T03:42:55.330Z,5.28
2022-11-26T03:45:22.162Z,5.55
2022-11-26T03:47:53.228Z,3.67
2022-11-26T03:50:19.919Z,4.68
2022-11-26T03:52:49.023Z,5.10
2022-11-26T03:55:15.838Z,4.93
2022-11-26T03:57:42.597Z,5.32
2022-11-26T04:00:10.129Z,5.85
2022-11-26T04:02:39.564Z,4.75
2022-11-26T04:05:06.678Z,4.40
2022-11-26T04:07:38.172Z,5.68
2022-11-26T04:10:07.798Z,4.60
2022-11-26T04:12:34.585Z,4.30
2022-11-26T04:15:01.332Z,5.95
2022-11-26T04:17:30.453Z,5.07
2022-11-26T04:19:57.253Z,5.20
2022-11-26T04:22:26.417Z,5.80
2022-11-26T04:24:55.247Z,6.35
2022-11-26T04:27:21.990Z,5.32
2022-11-26T04:29:48.692Z,5.80
2022-11-26T04:32:17.856Z,6.20
2022-11-26T04:34:44.575Z,5.82
2022-11-26T04:37:11.283Z,5.63
2022-11-26T04:39:40.251Z,6.03
2022-11-26T04:42:11.628Z,7.43
2022-11-26T04:44:40.601Z,5.65
2022-11-26T04:47:09.685Z,5.28
2022-11-26T04:49:36.353Z,5.10
2022-11-26T04:52:05.236Z,3.78
2022-11-26T04:54:31.973Z,5.65
2022-11-26T04:57:01.058Z,4.70
2022-11-26T04:59:32.471Z,5.78
2022-11-26T05:01:59.653Z,5.50
2022-11-26T05:04:28.215Z,4.97
2022-11-26T05:06:55.513Z,5.68
2022-11-26T05:09:22.403Z,6.22
2022-11-26T05:11:49.302Z,5.78
2022-11-26T05:14:16.055Z,5.57
2022-11-26T05:16:42.929Z,5.53
2022-11-26T05:19:09.728Z,5.60
2022-11-26T05:21:36.510Z,5.88
2022-11-26T05:24:05.642Z,5.82
2022-11-26T05:26:34.547Z,5.65
2022-11-26T05:29:03.908Z,6.30
2022-11-26T05:31:33.251Z,5.05
2022-11-26T05:34:00.088Z,5.70
2022-11-26T05:36:26.902Z,5.07
2022-11-26T05:38:55.855Z,5.47
2022-11-26T05:41:24.690Z,5.57
2022-11-26T05:43:51.519Z,5.47
2022-11-26T05:46:19.133Z,5.10
2022-11-26T05:48:45.915Z,4.93
2022-11-26T05:51:12.664Z,5.97
2022-11-26T05:53:39.430Z,5.15
2022-11-26T05:56:06.888Z,4.05
2022-11-26T05:58:33.955Z,5.65
2022-11-26T06:01:00.660Z,6.00
2022-11-26T06:03:27.567Z,5.88
2022-11-26T06:05:56.518Z,5.45
2022-11-26T06:08:23.216Z,5.30
2022-11-26T06:10:49.945Z,4.35
2022-11-26T06:13:19.258Z,5.45
2022-11-26T06:15:48.137Z,6.22
2022-11-26T06:18:17.416Z,6.97
2022-11-26T06:20:44.770Z,5.40
2022-11-26T06:23:11.755Z,5.60
2022-11-26T06:25:42.277Z,6.00
2022-11-26T06:28:09.035Z,5.70
2022-11-26T06:30:35.762Z,5.78
2022-11-26T06:33:02.513Z,4.55
2022-11-26T06:35:31.730Z,6.15
2022-11-26T06:37:58.401Z,6.10
2022-11-26T06:40:25.144Z,5.50
2022-11-26T06:42:55.725Z,5.43
2022-11-26T06:45:28.281Z,5.57
2022-11-26T06:47:55.026Z,6.93
2022-11-26T06:50:23.271Z,4.82
2022-11-26T06:52:54.212Z,5.22
2022-11-26T06:55:21.522Z,6.03
2022-11-26T06:57:54.199Z,6.57
2022-11-26T07:00:22.042Z,6.72
2022-11-26T07:02:48.854Z,5.90
2022-11-26T07:05:18.089Z,5.32
2022-11-26T07:07:48.560Z,7.05
2022-11-26T07:10:18.171Z,7.13
2022-11-26T07:12:49.650Z,7.43
2022-11-26T07:15:16.472Z,7.88
2022-11-26T07:17:43.248Z,8.70
2022-11-26T07:20:12.606Z,6.72
2022-11-26T07:22:39.347Z,7.53
2022-11-26T07:25:12.153Z,7.05
2022-11-26T07:27:39.394Z,6.97
2022-11-26T07:30:12.183Z,6.80
2022-11-26T07:32:39.612Z,6.90
2022-11-26T07:35:07.281Z,7.10
2022-11-26T07:37:36.530Z,7.40
2022-11-26T07:40:05.396Z,6.28
2022-11-26T07:42:33.492Z,8.25
2022-11-26T07:45:00.778Z,7.72
2022-11-26T07:47:29.940Z,8.63
2022-11-26T07:49:56.621Z,7.60
2022-11-26T07:52:23.376Z,5.60
2022-11-26T07:54:50.213Z,8.50
2022-11-26T07:57:16.990Z,9.18
2022-11-26T07:59:45.954Z,7.65
2022-11-26T08:02:20.165Z,10.35
2022-11-26T08:04:49.456Z,8.90
2022-11-26T08:07:23.287Z,10.10
2022-11-26T08:09:52.736Z,8.05
2022-11-26T08:12:19.442Z,8.70
2022-11-26T08:14:46.139Z,8.55
2022-11-26T08:17:15.272Z,8.05
2022-11-26T08:19:42.000Z,7.82
2022-11-26T08:22:11.084Z,7.95
2022-11-26T08:24:42.563Z,7.13
2022-11-26T08:27:09.278Z,8.90
2022-11-26T08:29:41.410Z,9.13
2022-11-26T08:34:34.817Z,8.95
2022-11-26T08:37:03.818Z,8.27
2022-11-26T08:39:35.420Z,9.38
2022-11-26T08:42:02.178Z,8.75
2022-11-26T08:44:31.390Z,7.68
2022-11-26T08:47:00.478Z,8.70
2022-11-26T08:49:29.435Z,8.65
2022-11-26T08:51:56.970Z,7.30
2022-11-26T08:54:26.885Z,7.05
2022-11-26T08:56:54.816Z,8.93
2022-11-26T08:59:24.285Z,8.63
2022-11-26T09:01:53.413Z,6.28
2022-11-26T09:04:20.287Z,7.57
2022-11-26T09:06:49.341Z,7.63
2022-11-26T09:09:18.560Z,8.18
2022-11-26T09:11:57.523Z,7.72
2022-11-26T09:14:27.304Z,7.70
2022-11-26T09:16:59.980Z,7.45
2022-11-26T09:19:30.611Z,5.82
2022-11-26T09:21:58.677Z,7.88
2022-11-26T09:24:30.203Z,8.93
2022-11-26T09:26:57.014Z,7.72
2022-11-26T09:29:26.087Z,7.28
2022-11-26T09:32:22.047Z,7.25
2022-11-26T09:34:44.264Z,7.93
2022-11-26T09:37:13.386Z,8.23
2022-11-26T09:39:40.177Z,7.78
2022-11-26T09:42:11.583Z,6.63
2022-11-26T09:44:38.529Z,6.70
2022-11-26T09:47:28.201Z,5.65
2022-11-26T09:50:03.822Z,5.25
2022-11-26T09:52:38.156Z,6.55
2022-11-26T09:55:14.385Z,6.65
2022-11-26T09:57:53.469Z,6.60
2022-11-26T10:00:31.009Z,5.57
2022-11-26T10:03:11.977Z,6.90
2022-11-26T10:06:02.177Z,6.85
2022-11-26T10:09:01.374Z,5.78
2022-11-26T10:11:48.099Z,6.50
2022-11-26T10:14:38.105Z,6.20
2022-11-26T10:17:21.969Z,6.93
2022-11-26T10:19:54.421Z,6.43
2022-11-26T10:22:43.853Z,5.95
2022-11-26T10:25:22.202Z,4.40
2022-11-26T10:27:49.817Z,4.32
2022-11-26T10:30:21.262Z,4.07
2022-11-26T10:32:52.165Z,3.30
2022-11-26T10:35:25.027Z,5.05
2022-11-26T10:37:55.360Z,5.68
2022-11-26T10:40:25.506Z,5.22
2022-11-26T10:43:09.579Z,5.32
2022-11-26T10:45:40.904Z,6.00
2022-11-26T10:48:29.648Z,5.38
2022-11-26T10:51:28.347Z,5.28
2022-11-26T10:53:57.722Z,5.15
2022-11-26T10:56:35.881Z,5.45
2022-11-26T10:59:13.638Z,5.05
2022-11-26T11:01:43.335Z,6.70
2022-11-26T11:04:29.937Z,5.60
2022-11-26T11:06:57.462Z,4.20
2022-11-26T11:09:29.352Z,4.55
2022-11-26T11:12:26.890Z,5.13
2022-11-26T11:14:53.710Z,6.47
2022-11-26T11:17:33.175Z,5.85
2022-11-26T11:20:10.797Z,4.13
2022-11-26T11:22:39.688Z,4.47
2022-11-26T11:25:20.998Z,4.43
2022-11-26T11:27:51.165Z,4.20
2022-11-26T11:30:30.274Z,5.40
2022-11-26T11:33:20.791Z,4.80
2022-11-26T11:36:13.380Z,3.75
2022-11-26T11:38:57.568Z,4.80
2022-11-26T11:41:45.485Z,3.60
2022-11-26T11:44:23.100Z,3.35
2022-11-26T11:46:58.355Z,3.00
2022-11-26T11:49:50.330Z,2.92
2022-11-26T11:52:25.965Z,2.70
2022-11-26T11:55:07.894Z,2.80
2022-11-26T11:57:43.825Z,3.20
2022-11-26T12:00:23.451Z,3.13
2022-11-26T12:03:17.525Z,3.15
2022-11-26T12:06:04.987Z,3.25
2022-11-26T12:08:47.034Z,3.38
2022-11-26T12:11:45.321Z,3.17
2022-11-26T12:14:20.361Z,3.10
2022-11-26T12:16:51.236Z,2.83
2022-11-26T12:19:32.416Z,2.40
2022-11-26T12:22:19.567Z,3.15
2022-11-26T12:24:57.618Z,3.05
2022-11-26T12:27:33.087Z,2.63
2022-11-26T12:30:23.756Z,2.78
2022-11-26T12:33:00.889Z,4.35
2022-11-26T12:35:39.488Z,2.58
2022-11-26T12:38:17.718Z,2.50
2022-11-26T12:40:47.365Z,2.53
2022-11-26T12:43:48.981Z,2.45
2022-11-26T12:46:27.606Z,1.83
2022-11-26T12:49:10.016Z,2.58
2022-11-26T12:51:46.919Z,2.20
2022-11-26T12:54:25.007Z,2.47
2022-11-26T12:56:57.353Z,2.40
2022-11-26T12:59:56.409Z,2.28
2022-11-26T13:02:26.137Z,2.53
2022-11-26T13:04:59.246Z,2.15
2022-11-26T13:07:46.259Z,2.45
2022-11-26T13:10:45.119Z,2.75
2022-11-26T13:13:39.715Z,2.47
2022-11-26T13:16:34.945Z,1.88
2022-11-26T13:19:19.949Z,2.40
2022-11-26T13:22:12.862Z,2.10
2022-11-26T13:25:14.121Z,2.20
2022-11-26T13:28:19.362Z,2.47
2022-11-26T13:31:23.723Z,2.38
2022-11-26T13:34:04.962Z,2.50
2022-11-26T13:37:11.838Z,2.42
2022-11-26T13:39:54.772Z,2.42
2022-11-26T13:42:21.470Z,2.67
2022-11-26T13:45:06.939Z,2.10
2022-11-26T13:47:55.265Z,2.50
2022-11-26T13:50:36.006Z,2.42
2022-11-26T13:53:11.752Z,2.75
2022-11-26T13:55:46.023Z,2.90
2022-11-26T13:58:30.450Z,2.78
2022-11-26T14:01:30.008Z,2.33
2022-11-26T14:03:59.831Z,2.22
2022-11-26T14:06:29.263Z,2.13
2022-11-26T14:08:56.741Z,2.42
2022-11-26T14:11:43.757Z,7.75
2022-11-26T14:14:25.855Z,5.40
2022-11-26T14:19:40.283Z,3.35
2022-11-26T14:22:29.693Z,2.92
2022-11-26T14:25:02.726Z,2.88
2022-11-26T14:27:39.807Z,2.65
2022-11-26T14:30:08.675Z,4.60
2022-11-26T14:32:50.468Z,5.65
2022-11-26T14:35:34.343Z,4.47
2022-11-26T14:38:04.745Z,4.15
2022-11-26T14:40:38.398Z,4.07
2022-11-26T14:43:13.944Z,2.60
2022-11-26T14:45:41.575Z,4.30
2022-11-26T14:48:26.722Z,3.38
2022-11-26T14:50:54.957Z,3.55
2022-11-26T14:53:25.373Z,3.33
2022-11-26T14:55:54.902Z,3.70
2022-11-26T14:58:41.778Z,4.50
2022-11-26T15:01:23.859Z,9.88
2022-11-26T15:04:01.023Z,92.82
2022-11-26T15:06:38.376Z,85.00
2022-11-26T15:09:08.044Z,31.63
2022-11-26T15:11:37.668Z,11.38
2022-11-26T15:14:04.486Z,6.72
2022-11-26T15:16:39.391Z,4.68
2022-11-26T15:19:14.799Z,4.10
2022-11-26T15:21:43.991Z,4.03
2022-11-26T15:24:10.803Z,3.50
2022-11-26T15:26:38.641Z,6.10
2022-11-26T15:29:30.969Z,7.30
2022-11-26T15:32:04.739Z,8.00
2022-11-26T15:34:32.894Z,11.88
2022-11-26T15:36:59.703Z,11.13
2022-11-26T15:39:31.019Z,9.20
2022-11-26T15:42:05.791Z,17.75
2022-11-26T15:44:42.418Z,10.57
2022-11-26T15:47:23.099Z,14.93
2022-11-26T15:49:58.529Z,8.55
2022-11-26T15:52:33.281Z,3.90
2022-11-26T15:55:13.733Z,3.25
2022-11-26T15:57:44.022Z,8.00
2022-11-26T16:00:23.980Z,9.50
2022-11-26T16:02:52.262Z,10.48
2022-11-26T16:05:23.843Z,16.25
2022-11-26T16:08:21.628Z,22.60
2022-11-26T16:10:56.525Z,8.10
2022-11-26T16:13:33.498Z,5.88
2022-11-26T16:16:12.839Z,5.85
2022-11-26T16:18:46.067Z,5.38
2022-11-26T16:21:36.777Z,4.40
2022-11-26T16:24:07.885Z,5.75
2022-11-26T16:26:53.659Z,6.82
2022-11-26T16:29:22.614Z,7.18
2022-11-26T16:31:49.378Z,5.40
2022-11-26T16:34:18.230Z,5.35
2022-11-26T16:36:47.782Z,5.95
2022-11-26T16:39:16.299Z,5.47
2022-11-26T16:41:45.778Z,7.07
2022-11-26T16:44:12.685Z,4.72
2022-11-26T16:46:41.127Z,3.97
2022-11-26T16:49:09.916Z,4.75
2022-11-26T16:51:36.655Z,5.78
2022-11-26T16:54:03.453Z,5.95
2022-11-26T16:56:37.313Z,5.32
2022-11-26T16:59:23.874Z,3.88
2022-11-26T17:01:55.304Z,4.10
2022-11-26T17:04:22.650Z,5.43
2022-11-26T17:06:51.984Z,6.45
2022-11-26T17:09:20.316Z,5.28
2022-11-26T17:11:47.142Z,5.72
2022-11-26T17:14:16.175Z,5.85
2022-11-26T17:16:45.154Z,5.03
2022-11-26T17:19:16.363Z,4.10
2022-11-26T17:21:46.418Z,4.83
2022-11-26T17:24:14.649Z,4.28
2022-11-26T17:26:43.224Z,4.88
2022-11-26T17:29:13.227Z,5.75
2022-11-26T17:31:44.558Z,5.20
2022-11-26T17:34:13.734Z,4.22
2022-11-26T17:36:40.426Z,4.28
2022-11-26T17:39:07.106Z,4.75
2022-11-26T17:41:33.819Z,3.70
2022-11-26T17:44:00.501Z,3.80
2022-11-26T17:46:27.274Z,5.45
2022-11-26T17:48:59.410Z,3.67
2022-11-26T17:51:26.777Z,3.38
2022-11-26T17:53:55.714Z,4.53
2022-11-26T17:56:28.666Z,4.40
2022-11-26T17:59:03.045Z,5.80
2022-11-26T18:01:32.179Z,4.43
2022-11-26T18:03:59.002Z,6.00
2022-11-26T18:06:42.607Z,3.95
2022-11-26T18:09:11.571Z,5.25
2022-11-26T18:12:07.642Z,5.82
2022-11-26T18:14:35.670Z,4.07
2022-11-26T18:17:08.267Z,4.38
2022-11-26T18:19:42.148Z,5.40
2022-11-26T18:22:18.218Z,4.32
2022-11-26T18:24:56.472Z,5.05
2022-11-26T18:27:30.539Z,5.03
2022-11-26T18:29:57.353Z,5.35
2022-11-26T18:32:24.342Z,5.65
2022-11-26T18:34:53.512Z,5.63
2022-11-26T18:37:20.245Z,6.22
2022-11-26T18:39:47.008Z,6.68
2022-11-26T18:45:03.656Z,6.82
2022-11-26T18:47:32.802Z,6.90
2022-11-26T18:50:04.195Z,6.47
2022-11-26T18:52:35.605Z,5.95
2022-11-26T18:55:07.486Z,6.07
2022-11-26T18:57:36.399Z,5.90
2022-11-26T19:00:07.138Z,6.53
2022-11-26T19:02:35.676Z,5.45
2022-11-26T19:05:03.554Z,5.53
2022-11-26T19:07:30.335Z,5.32
2022-11-26T19:09:57.071Z,5.45
2022-11-26T19:12:23.766Z,7.00
2022-11-26T19:14:50.489Z,5.88
2022-11-26T19:17:21.868Z,6.22
2022-11-26T19:19:48.622Z,6.20
2022-11-26T19:22:17.709Z,6.55
2022-11-26T19:24:46.665Z,5.85
2022-11-26T19:27:15.767Z,5.60
2022-11-26T19:29:47.164Z,6.43
2022-11-26T19:32:13.834Z,7.00
2022-11-26T19:34:40.790Z,7.65
2022-11-26T19:37:07.730Z,6.32
2022-11-26T19:39:34.469Z,8.88
2022-11-26T19:42:01.289Z,10.90
2022-11-26T19:44:30.314Z,9.55
2022-11-26T19:46:59.494Z,7.80
2022-11-26T19:49:28.729Z,9.07
2022-11-26T19:51:56.444Z,7.55
2022-11-26T19:54:25.796Z,6.45
2022-11-26T19:56:57.229Z,7.82
2022-11-26T19:59:28.632Z,8.10
2022-11-26T20:01:57.740Z,7.25
2022-11-26T20:04:27.519Z,9.25
2022-11-26T20:06:56.853Z,8.98
2022-11-26T20:09:27.680Z,8.30
2022-11-26T20:11:54.461Z,6.25
2022-11-26T20:14:21.194Z,5.35
2022-11-26T20:16:55.170Z,6.97
2022-11-26T20:19:26.106Z,6.43
2022-11-26T20:21:57.789Z,7.85
2022-11-26T20:24:26.636Z,6.68
2022-11-26T20:26:55.823Z,7.95
2022-11-26T20:29:25.273Z,7.68
2022-11-26T20:31:57.469Z,6.90
2022-11-26T20:34:27.860Z,5.90
2022-11-26T20:36:59.276Z,7.38
2022-11-26T20:39:26.359Z,6.85
2022-11-26T20:41:55.451Z,8.23
2022-11-26T20:44:26.699Z,8.35
2022-11-26T20:46:53.383Z,7.13
2022-11-26T20:49:23.371Z,7.90
2022-11-26T20:51:52.445Z,7.63
2022-11-26T20:54:21.436Z,9.43
2022-11-26T20:56:48.174Z,7.63
2022-11-26T20:59:17.407Z,8.65
2022-11-26T21:01:46.271Z,8.13
2022-11-26T21:04:13.086Z,8.82
2022-11-26T21:06:42.740Z,8.57
2022-11-26T21:09:14.127Z,7.97
2022-11-26T21:11:43.928Z,8.55
2022-11-26T21:14:14.791Z,9.80
2022-11-26T21:16:42.187Z,5.00
2022-11-26T21:19:12.276Z,8.60
2022-11-26T21:21:41.888Z,8.23
2022-11-26T21:24:14.473Z,8.23
2022-11-26T21:26:43.539Z,7.60
2022-11-26T21:29:14.989Z,8.02
2022-11-26T21:31:41.736Z,8.52
2022-11-26T21:34:08.539Z,6.85
2022-11-26T21:36:36.563Z,7.00
2022-11-26T21:39:08.057Z,7.68
2022-11-26T21:41:39.567Z,8.80
2022-11-26T21:44:06.571Z,9.30
2022-11-26T21:46:38.544Z,7.28
2022-11-26T21:49:08.914Z,8.35
2022-11-26T21:51:35.762Z,7.90
2022-11-26T21:54:02.814Z,8.77
2022-11-26T21:56:34.631Z,10.32
2022-11-26T21:59:03.839Z,10.38
2022-11-26T22:01:36.166Z,10.90
2022-11-26T22:04:07.869Z,8.35
2022-11-26T22:06:37.119Z,9.55
2022-11-26T22:09:11.882Z,9.88
2022-11-26T22:11:40.844Z,9.07
2022-11-26T22:14:08.897Z,8.75
2022-11-26T22:16:36.475Z,8.90
2022-11-26T22:19:05.932Z,9.73
2022-11-26T22:21:38.419Z,9.90
2022-11-26T22:24:09.689Z,9.05
2022-11-26T22:26:41.519Z,8.90
2022-11-26T22:29:08.603Z,9.43
2022-11-26T22:31:37.693Z,8.48
2022-11-26T22:34:10.803Z,8.15
2022-11-26T22:36:41.695Z,8.27
2022-11-26T22:39:11.975Z,7.13
2022-11-26T22:41:41.016Z,8.38
2022-11-26T22:44:12.944Z,8.68
2022-11-26T22:46:41.814Z,9.18
2022-11-26T22:49:15.981Z,7.38
2022-11-26T22:51:47.447Z,8.52
2022-11-26T22:54:16.238Z,10.43
2022-11-26T22:56:43.016Z,7.93
2022-11-26T22:59:16.813Z,7.07
2022-11-26T23:01:43.724Z,8.25
2022-11-26T23:04:13.507Z,9.07
2022-11-26T23:06:40.642Z,8.65
2022-11-26T23:09:11.260Z,9.48
2022-11-26T23:11:43.419Z,8.52
2022-11-26T23:14:11.986Z,9.30
2022-11-26T23:16:41.310Z,11.30
2022-11-26T23:19:14.212Z,11.18
2022-11-26T23:21:42.794Z,11.27
2022-11-26T23:24:16.148Z,10.57
2022-11-26T23:26:45.639Z,8.98
2022-11-26T23:29:14.805Z,10.77
2022-11-26T23:31:45.812Z,10.48
2022-11-26T23:34:13.328Z,10.30
2022-11-26T23:36:45.241Z,10.95
2022-11-26T23:39:14.561Z,10.52
2022-11-26T23:41:45.916Z,10.20
2022-11-26T23:44:12.780Z,10.60
2022-11-26T23:46:39.734Z,9.98
2022-11-26T23:49:08.719Z,8.55
2022-11-26T23:51:40.219Z,12.48
2022-11-26T23:54:09.154Z,11.85
2022-11-26T23:56:38.230Z,10.02
2022-11-26T23:59:07.594Z,9.65
